sensor_id;sensor_type;location;lat;lon;timestamp;temperature;humidity
67769;DHT22;54569;52.018;5.584;2023-02-11T00:00:15;7.20;76.60
67769;DHT22;54569;52.018;5.584;2023-02-11T00:02:41;7.20;76.10
67769;DHT22;54569;52.018;5.584;2023-02-11T00:05:07;7.20;77.20
67769;DHT22;54569;52.018;5.584;2023-02-11T00:07:33;7.20;76.80
67769;DHT22;54569;52.018;5.584;2023-02-11T00:10:00;7.20;76.40
67769;DHT22;54569;52.018;5.584;2023-02-11T00:12:27;7.20;76.60
67769;DHT22;54569;52.018;5.584;2023-02-11T00:14:53;7.20;76.50
67769;DHT22;54569;52.018;5.584;2023-02-11T00:17:19;7.20;76.30
67769;DHT22;54569;52.018;5.584;2023-02-11T00:19:48;7.20;77.20
67769;DHT22;54569;52.018;5.584;2023-02-11T00:22:14;7.20;76.40
67769;DHT22;54569;52.018;5.584;2023-02-11T00:24:40;7.20;76.70
67769;DHT22;54569;52.018;5.584;2023-02-11T00:27:06;7.20;76.50
67769;DHT22;54569;52.018;5.584;2023-02-11T00:29:31;7.20;76.50
67769;DHT22;54569;52.018;5.584;2023-02-11T00:31:57;7.20;76.20
67769;DHT22;54569;52.018;5.584;2023-02-11T00:34:23;7.20;76.30
67769;DHT22;54569;52.018;5.584;2023-02-11T00:36:49;7.20;76.60
67769;DHT22;54569;52.018;5.584;2023-02-11T00:39:14;7.20;76.60
67769;DHT22;54569;52.018;5.584;2023-02-11T00:41:40;7.20;76.50
67769;DHT22;54569;52.018;5.584;2023-02-11T00:44:06;7.20;76.90
67769;DHT22;54569;52.018;5.584;2023-02-11T00:46:31;7.20;76.60
67769;DHT22;54569;52.018;5.584;2023-02-11T00:48:57;7.20;77.10
67769;DHT22;54569;52.018;5.584;2023-02-11T00:51:24;7.20;76.80
67769;DHT22;54569;52.018;5.584;2023-02-11T00:53:50;7.20;76.70
67769;DHT22;54569;52.018;5.584;2023-02-11T00:56:16;7.10;77.40
67769;DHT22;54569;52.018;5.584;2023-02-11T00:58:42;7.20;77.40
67769;DHT22;54569;52.018;5.584;2023-02-11T01:01:09;7.10;77.10
67769;DHT22;54569;52.018;5.584;2023-02-11T01:03:35;7.20;76.90
67769;DHT22;54569;52.018;5.584;2023-02-11T01:06:00;7.10;77.10
67769;DHT22;54569;52.018;5.584;2023-02-11T01:08:26;7.10;77.70
67769;DHT22;54569;52.018;5.584;2023-02-11T01:11:01;7.10;77.70
67769;DHT22;54569;52.018;5.584;2023-02-11T01:13:28;7.10;77.30
67769;DHT22;54569;52.018;5.584;2023-02-11T01:15:55;7.10;77.00
67769;DHT22;54569;52.018;5.584;2023-02-11T01:18:21;7.10;77.00
67769;DHT22;54569;52.018;5.584;2023-02-11T01:20:47;7.10;77.10
67769;DHT22;54569;52.018;5.584;2023-02-11T01:23:13;7.10;77.60
67769;DHT22;54569;52.018;5.584;2023-02-11T01:25:39;7.10;77.30
67769;DHT22;54569;52.018;5.584;2023-02-11T01:28:04;7.10;77.10
67769;DHT22;54569;52.018;5.584;2023-02-11T01:30:30;7.10;77.00
67769;DHT22;54569;52.018;5.584;2023-02-11T01:32:56;7.10;77.40
67769;DHT22;54569;52.018;5.584;2023-02-11T01:35:21;7.10;77.30
67769;DHT22;54569;52.018;5.584;2023-02-11T01:37:47;7.10;77.90
67769;DHT22;54569;52.018;5.584;2023-02-11T01:40:15;7.00;77.40
67769;DHT22;54569;52.018;5.584;2023-02-11T01:42:42;7.10;77.50
67769;DHT22;54569;52.018;5.584;2023-02-11T01:46:29;7.00;77.40
67769;DHT22;54569;52.018;5.584;2023-02-11T01:48:35;7.10;78.50
67769;DHT22;54569;52.018;5.584;2023-02-11T01:51:19;7.00;77.60
67769;DHT22;54569;52.018;5.584;2023-02-11T01:53:47;7.10;77.70
67769;DHT22;54569;52.018;5.584;2023-02-11T01:56:35;7.00;77.10
67769;DHT22;54569;52.018;5.584;2023-02-11T01:59:29;7.10;77.40
67769;DHT22;54569;52.018;5.584;2023-02-11T02:01:59;7.00;79.00
67769;DHT22;54569;52.018;5.584;2023-02-11T02:04:32;7.00;77.40
67769;DHT22;54569;52.018;5.584;2023-02-11T02:07:11;7.00;77.20
67769;DHT22;54569;52.018;5.584;2023-02-11T02:09:42;7.00;77.60
67769;DHT22;54569;52.018;5.584;2023-02-11T02:12:09;7.00;77.20
67769;DHT22;54569;52.018;5.584;2023-02-11T02:14:39;7.00;77.60
67769;DHT22;54569;52.018;5.584;2023-02-11T02:17:05;7.00;77.40
67769;DHT22;54569;52.018;5.584;2023-02-11T02:19:46;7.00;77.60
67769;DHT22;54569;52.018;5.584;2023-02-11T02:28:35;7.00;78.10
67769;DHT22;54569;52.018;5.584;2023-02-11T02:35:56;7.00;77.60
67769;DHT22;54569;52.018;5.584;2023-02-11T02:38:29;7.00;78.40
67769;DHT22;54569;52.018;5.584;2023-02-11T02:41:01;7.00;78.10
67769;DHT22;54569;52.018;5.584;2023-02-11T02:43:31;7.00;78.20
67769;DHT22;54569;52.018;5.584;2023-02-11T02:46:31;6.90;78.10
67769;DHT22;54569;52.018;5.584;2023-02-11T02:48:57;6.90;79.50
67769;DHT22;54569;52.018;5.584;2023-02-11T02:51:33;6.90;78.20
67769;DHT22;54569;52.018;5.584;2023-02-11T02:54:22;6.90;78.30
67769;DHT22;54569;52.018;5.584;2023-02-11T02:59:53;6.80;78.70
67769;DHT22;54569;52.018;5.584;2023-02-11T03:05:20;6.80;79.80
67769;DHT22;54569;52.018;5.584;2023-02-11T03:10:58;6.80;79.30
67769;DHT22;54569;52.018;5.584;2023-02-11T03:13:29;6.80;78.50
67769;DHT22;54569;52.018;5.584;2023-02-11T03:16:11;6.80;78.70
67769;DHT22;54569;52.018;5.584;2023-02-11T03:18:41;6.80;78.60
67769;DHT22;54569;52.018;5.584;2023-02-11T03:21:09;6.80;78.90
67769;DHT22;54569;52.018;5.584;2023-02-11T03:23:48;6.80;78.90
67769;DHT22;54569;52.018;5.584;2023-02-11T03:28:59;6.70;79.50
67769;DHT22;54569;52.018;5.584;2023-02-11T03:31:41;6.70;80.00
67769;DHT22;54569;52.018;5.584;2023-02-11T03:34:14;6.70;79.70
67769;DHT22;54569;52.018;5.584;2023-02-11T03:36:51;6.70;79.40
67769;DHT22;54569;52.018;5.584;2023-02-11T03:39:26;6.70;79.80
67769;DHT22;54569;52.018;5.584;2023-02-11T03:41:55;6.70;79.60
67769;DHT22;54569;52.018;5.584;2023-02-11T03:44:22;6.70;79.60
67769;DHT22;54569;52.018;5.584;2023-02-11T03:46:50;6.70;79.60
67769;DHT22;54569;52.018;5.584;2023-02-11T03:49:18;6.70;79.90
67769;DHT22;54569;52.018;5.584;2023-02-11T03:51:46;6.70;80.00
67769;DHT22;54569;52.018;5.584;2023-02-11T03:54:15;6.70;79.60
67769;DHT22;54569;52.018;5.584;2023-02-11T03:56:54;6.70;79.70
67769;DHT22;54569;52.018;5.584;2023-02-11T03:59:20;6.70;81.20
67769;DHT22;54569;52.018;5.584;2023-02-11T04:01:46;6.60;80.30
67769;DHT22;54569;52.018;5.584;2023-02-11T04:04:12;6.60;80.90
67769;DHT22;54569;52.018;5.584;2023-02-11T04:06:38;6.60;80.50
67769;DHT22;54569;52.018;5.584;2023-02-11T04:09:04;6.60;80.40
67769;DHT22;54569;52.018;5.584;2023-02-11T04:11:30;6.50;80.30
67769;DHT22;54569;52.018;5.584;2023-02-11T04:13:55;6.50;81.10
67769;DHT22;54569;52.018;5.584;2023-02-11T04:16:21;6.50;80.60
67769;DHT22;54569;52.018;5.584;2023-02-11T04:18:47;6.50;81.10
67769;DHT22;54569;52.018;5.584;2023-02-11T04:21:12;6.50;80.90
67769;DHT22;54569;52.018;5.584;2023-02-11T04:23:38;6.50;81.50
67769;DHT22;54569;52.018;5.584;2023-02-11T04:26:05;6.50;80.80
67769;DHT22;54569;52.018;5.584;2023-02-11T04:28:31;6.50;81.10
67769;DHT22;54569;52.018;5.584;2023-02-11T04:30:57;6.50;80.80
67769;DHT22;54569;52.018;5.584;2023-02-11T04:33:23;6.50;81.30
67769;DHT22;54569;52.018;5.584;2023-02-11T04:35:48;6.50;81.00
67769;DHT22;54569;52.018;5.584;2023-02-11T04:38:14;6.50;80.90
67769;DHT22;54569;52.018;5.584;2023-02-11T04:40:40;6.50;80.60
67769;DHT22;54569;52.018;5.584;2023-02-11T04:43:06;6.50;80.70
67769;DHT22;54569;52.018;5.584;2023-02-11T04:45:32;6.60;80.60
67769;DHT22;54569;52.018;5.584;2023-02-11T04:47:58;6.60;81.00
67769;DHT22;54569;52.018;5.584;2023-02-11T04:50:23;6.60;81.20
67769;DHT22;54569;52.018;5.584;2023-02-11T04:52:49;6.60;81.10
67769;DHT22;54569;52.018;5.584;2023-02-11T04:55:15;6.50;81.30
67769;DHT22;54569;52.018;5.584;2023-02-11T04:57:41;6.60;81.30
67769;DHT22;54569;52.018;5.584;2023-02-11T05:00:07;6.60;81.40
67769;DHT22;54569;52.018;5.584;2023-02-11T05:02:34;6.60;81.80
67769;DHT22;54569;52.018;5.584;2023-02-11T05:05:00;6.60;81.10
67769;DHT22;54569;52.018;5.584;2023-02-11T05:07:26;6.60;81.30
67769;DHT22;54569;52.018;5.584;2023-02-11T05:09:51;6.60;81.20
67769;DHT22;54569;52.018;5.584;2023-02-11T05:12:17;6.60;81.00
67769;DHT22;54569;52.018;5.584;2023-02-11T05:14:43;6.60;81.70
67769;DHT22;54569;52.018;5.584;2023-02-11T05:17:08;6.60;81.60
67769;DHT22;54569;52.018;5.584;2023-02-11T05:19:34;6.60;81.60
67769;DHT22;54569;52.018;5.584;2023-02-11T05:22:00;6.60;81.40
67769;DHT22;54569;52.018;5.584;2023-02-11T05:24:25;6.60;81.80
67769;DHT22;54569;52.018;5.584;2023-02-11T05:26:51;6.60;81.40
67769;DHT22;54569;52.018;5.584;2023-02-11T05:29:17;6.60;81.30
67769;DHT22;54569;52.018;5.584;2023-02-11T05:31:43;6.60;81.20
67769;DHT22;54569;52.018;5.584;2023-02-11T05:34:08;6.60;81.60
67769;DHT22;54569;52.018;5.584;2023-02-11T05:36:34;6.60;81.40
67769;DHT22;54569;52.018;5.584;2023-02-11T05:39:00;6.70;81.60
67769;DHT22;54569;52.018;5.584;2023-02-11T05:41:25;6.60;81.70
67769;DHT22;54569;52.018;5.584;2023-02-11T05:43:51;6.60;81.50
67769;DHT22;54569;52.018;5.584;2023-02-11T05:46:17;6.70;81.50
67769;DHT22;54569;52.018;5.584;2023-02-11T05:48:43;6.70;81.60
67769;DHT22;54569;52.018;5.584;2023-02-11T05:51:09;6.70;81.30
67769;DHT22;54569;52.018;5.584;2023-02-11T05:53:35;6.70;81.30
67769;DHT22;54569;52.018;5.584;2023-02-11T05:56:01;6.70;81.80
67769;DHT22;54569;52.018;5.584;2023-02-11T05:58:26;6.60;81.50
67769;DHT22;54569;52.018;5.584;2023-02-11T06:00:52;6.70;81.40
67769;DHT22;54569;52.018;5.584;2023-02-11T06:03:18;6.70;81.50
67769;DHT22;54569;52.018;5.584;2023-02-11T06:05:44;6.70;81.40
67769;DHT22;54569;52.018;5.584;2023-02-11T06:08:10;6.70;81.60
67769;DHT22;54569;52.018;5.584;2023-02-11T06:10:36;6.70;81.50
67769;DHT22;54569;52.018;5.584;2023-02-11T06:13:02;6.70;81.70
67769;DHT22;54569;52.018;5.584;2023-02-11T06:15:30;6.70;81.40
67769;DHT22;54569;52.018;5.584;2023-02-11T06:17:56;6.70;81.60
67769;DHT22;54569;52.018;5.584;2023-02-11T06:20:21;6.70;81.50
67769;DHT22;54569;52.018;5.584;2023-02-11T06:22:47;6.70;81.80
67769;DHT22;54569;52.018;5.584;2023-02-11T06:25:13;6.70;81.70
67769;DHT22;54569;52.018;5.584;2023-02-11T06:27:39;6.70;81.60
67769;DHT22;54569;52.018;5.584;2023-02-11T06:30:05;6.70;81.70
67769;DHT22;54569;52.018;5.584;2023-02-11T06:32:31;6.70;81.70
67769;DHT22;54569;52.018;5.584;2023-02-11T06:34:59;6.70;82.00
67769;DHT22;54569;52.018;5.584;2023-02-11T06:37:25;6.70;82.30
67769;DHT22;54569;52.018;5.584;2023-02-11T06:39:50;6.70;82.20
67769;DHT22;54569;52.018;5.584;2023-02-11T06:42:16;6.60;82.10
67769;DHT22;54569;52.018;5.584;2023-02-11T06:44:42;6.60;81.90
67769;DHT22;54569;52.018;5.584;2023-02-11T06:47:09;6.70;82.00
67769;DHT22;54569;52.018;5.584;2023-02-11T06:49:34;6.70;82.20
67769;DHT22;54569;52.018;5.584;2023-02-11T06:52:00;6.70;82.20
67769;DHT22;54569;52.018;5.584;2023-02-11T06:54:26;6.70;82.10
67769;DHT22;54569;52.018;5.584;2023-02-11T06:56:51;6.70;82.30
67769;DHT22;54569;52.018;5.584;2023-02-11T06:59:18;6.70;82.50
67769;DHT22;54569;52.018;5.584;2023-02-11T07:01:45;6.70;82.40
67769;DHT22;54569;52.018;5.584;2023-02-11T07:04:11;6.70;82.20
67769;DHT22;54569;52.018;5.584;2023-02-11T07:06:39;6.70;82.20
67769;DHT22;54569;52.018;5.584;2023-02-11T07:09:05;6.70;82.20
67769;DHT22;54569;52.018;5.584;2023-02-11T07:11:33;6.70;82.50
67769;DHT22;54569;52.018;5.584;2023-02-11T07:14:01;6.70;82.40
67769;DHT22;54569;52.018;5.584;2023-02-11T07:16:28;6.70;82.40
67769;DHT22;54569;52.018;5.584;2023-02-11T07:18:53;6.70;82.50
67769;DHT22;54569;52.018;5.584;2023-02-11T07:21:21;6.80;82.60
67769;DHT22;54569;52.018;5.584;2023-02-11T07:23:47;6.70;82.30
67769;DHT22;54569;52.018;5.584;2023-02-11T07:26:20;6.80;82.60
67769;DHT22;54569;52.018;5.584;2023-02-11T07:28:50;6.80;82.90
67769;DHT22;54569;52.018;5.584;2023-02-11T07:31:22;6.80;82.60
67769;DHT22;54569;52.018;5.584;2023-02-11T07:33:48;6.80;82.90
67769;DHT22;54569;52.018;5.584;2023-02-11T07:36:15;6.80;82.80
67769;DHT22;54569;52.018;5.584;2023-02-11T07:38:41;6.90;82.80
67769;DHT22;54569;52.018;5.584;2023-02-11T07:41:09;6.90;83.50
67769;DHT22;54569;52.018;5.584;2023-02-11T07:43:36;6.90;83.60
67769;DHT22;54569;52.018;5.584;2023-02-11T07:46:07;6.90;84.30
67769;DHT22;54569;52.018;5.584;2023-02-11T07:48:33;6.90;84.20
67769;DHT22;54569;52.018;5.584;2023-02-11T07:51:13;6.90;84.20
67769;DHT22;54569;52.018;5.584;2023-02-11T07:53:39;7.00;84.30
67769;DHT22;54569;52.018;5.584;2023-02-11T07:56:06;7.00;84.10
67769;DHT22;54569;52.018;5.584;2023-02-11T07:58:32;7.00;83.80
67769;DHT22;54569;52.018;5.584;2023-02-11T08:01:03;7.00;83.80
67769;DHT22;54569;52.018;5.584;2023-02-11T08:03:29;7.00;83.50
67769;DHT22;54569;52.018;5.584;2023-02-11T08:05:54;7.00;83.60
67769;DHT22;54569;52.018;5.584;2023-02-11T08:08:20;7.00;83.70
67769;DHT22;54569;52.018;5.584;2023-02-11T08:10:46;7.10;83.50
67769;DHT22;54569;52.018;5.584;2023-02-11T08:13:11;7.10;83.70
67769;DHT22;54569;52.018;5.584;2023-02-11T08:15:37;7.10;83.90
67769;DHT22;54569;52.018;5.584;2023-02-11T08:18:03;7.10;83.60
67769;DHT22;54569;52.018;5.584;2023-02-11T08:20:28;7.10;83.50
67769;DHT22;54569;52.018;5.584;2023-02-11T08:22:54;7.10;83.70
67769;DHT22;54569;52.018;5.584;2023-02-11T08:25:20;7.10;83.60
67769;DHT22;54569;52.018;5.584;2023-02-11T08:27:45;7.20;83.80
67769;DHT22;54569;52.018;5.584;2023-02-11T08:30:11;7.20;84.40
67769;DHT22;54569;52.018;5.584;2023-02-11T08:32:37;7.20;84.90
67769;DHT22;54569;52.018;5.584;2023-02-11T08:35:04;7.30;84.20
67769;DHT22;54569;52.018;5.584;2023-02-11T08:37:32;7.30;84.10
67769;DHT22;54569;52.018;5.584;2023-02-11T08:39:58;7.40;84.00
67769;DHT22;54569;52.018;5.584;2023-02-11T08:42:24;7.40;84.40
67769;DHT22;54569;52.018;5.584;2023-02-11T08:44:49;7.40;84.30
67769;DHT22;54569;52.018;5.584;2023-02-11T08:47:15;7.50;84.00
67769;DHT22;54569;52.018;5.584;2023-02-11T08:49:41;7.50;83.90
67769;DHT22;54569;52.018;5.584;2023-02-11T08:52:07;7.60;83.70
67769;DHT22;54569;52.018;5.584;2023-02-11T08:54:33;7.60;83.50
67769;DHT22;54569;52.018;5.584;2023-02-11T08:56:59;7.70;83.40
67769;DHT22;54569;52.018;5.584;2023-02-11T08:59:26;7.70;84.00
67769;DHT22;54569;52.018;5.584;2023-02-11T09:01:52;7.70;83.50
67769;DHT22;54569;52.018;5.584;2023-02-11T09:04:18;7.80;83.80
67769;DHT22;54569;52.018;5.584;2023-02-11T09:06:44;7.80;83.60
67769;DHT22;54569;52.018;5.584;2023-02-11T09:09:14;7.80;83.20
67769;DHT22;54569;52.018;5.584;2023-02-11T09:11:41;7.90;83.70
67769;DHT22;54569;52.018;5.584;2023-02-11T09:14:07;7.90;83.50
67769;DHT22;54569;52.018;5.584;2023-02-11T09:16:35;8.00;83.00
67769;DHT22;54569;52.018;5.584;2023-02-11T09:19:02;8.10;83.10
67769;DHT22;54569;52.018;5.584;2023-02-11T09:21:29;8.20;83.00
67769;DHT22;54569;52.018;5.584;2023-02-11T09:23:55;8.20;82.30
67769;DHT22;54569;52.018;5.584;2023-02-11T09:26:25;8.30;82.50
67769;DHT22;54569;52.018;5.584;2023-02-11T09:28:51;8.40;82.20
67769;DHT22;54569;52.018;5.584;2023-02-11T09:31:23;8.60;81.60
67769;DHT22;54569;52.018;5.584;2023-02-11T09:33:51;8.60;81.60
67769;DHT22;54569;52.018;5.584;2023-02-11T09:36:20;8.70;81.60
67769;DHT22;54569;52.018;5.584;2023-02-11T09:38:46;8.70;81.30
67769;DHT22;54569;52.018;5.584;2023-02-11T09:43:49;8.70;82.40
67769;DHT22;54569;52.018;5.584;2023-02-11T09:46:16;8.70;81.90
67769;DHT22;54569;52.018;5.584;2023-02-11T09:48:45;8.70;81.90
67769;DHT22;54569;52.018;5.584;2023-02-11T09:54:00;8.90;82.50
67769;DHT22;54569;52.018;5.584;2023-02-11T09:56:28;8.90;81.70
67769;DHT22;54569;52.018;5.584;2023-02-11T09:58:53;8.90;81.60
67769;DHT22;54569;52.018;5.584;2023-02-11T10:01:41;8.90;81.60
67769;DHT22;54569;52.018;5.584;2023-02-11T10:07:31;9.00;82.10
67769;DHT22;54569;52.018;5.584;2023-02-11T10:18:01;9.50;81.00
67769;DHT22;54569;52.018;5.584;2023-02-11T10:20:42;9.70;81.60
67769;DHT22;54569;52.018;5.584;2023-02-11T10:23:16;9.90;79.30
67769;DHT22;54569;52.018;5.584;2023-02-11T10:25:46;10.00;79.30
67769;DHT22;54569;52.018;5.584;2023-02-11T10:28:15;10.20;78.90
67769;DHT22;54569;52.018;5.584;2023-02-11T10:30:59;10.50;78.10
67769;DHT22;54569;52.018;5.584;2023-02-11T10:33:51;10.90;77.50
67769;DHT22;54569;52.018;5.584;2023-02-11T10:36:20;11.10;76.40
67769;DHT22;54569;52.018;5.584;2023-02-11T10:38:48;11.40;75.20
67769;DHT22;54569;52.018;5.584;2023-02-11T10:41:27;11.90;74.40
67769;DHT22;54569;52.018;5.584;2023-02-11T10:43:55;12.10;73.60
67769;DHT22;54569;52.018;5.584;2023-02-11T10:46:25;12.50;73.00
67769;DHT22;54569;52.018;5.584;2023-02-11T10:48:53;13.00;71.60
67769;DHT22;54569;52.018;5.584;2023-02-11T10:51:25;13.50;70.70
67769;DHT22;54569;52.018;5.584;2023-02-11T10:56:31;14.20;69.50
67769;DHT22;54569;52.018;5.584;2023-02-11T10:59:13;14.60;68.30
67769;DHT22;54569;52.018;5.584;2023-02-11T11:01:51;14.90;67.70
67769;DHT22;54569;52.018;5.584;2023-02-11T11:04:39;15.30;66.90
67769;DHT22;54569;52.018;5.584;2023-02-11T11:10:04;15.30;66.50
67769;DHT22;54569;52.018;5.584;2023-02-11T11:12:45;14.90;66.70
67769;DHT22;54569;52.018;5.584;2023-02-11T11:15:27;14.50;68.40
67769;DHT22;54569;52.018;5.584;2023-02-11T11:18:16;14.10;69.20
67769;DHT22;54569;52.018;5.584;2023-02-11T11:20:58;13.80;69.80
67769;DHT22;54569;52.018;5.584;2023-02-11T11:23:25;13.70;70.20
67769;DHT22;54569;52.018;5.584;2023-02-11T11:26:05;13.40;71.30
67769;DHT22;54569;52.018;5.584;2023-02-11T11:28:39;13.30;71.50
67769;DHT22;54569;52.018;5.584;2023-02-11T11:31:14;13.30;71.80
67769;DHT22;54569;52.018;5.584;2023-02-11T11:33:44;13.70;71.80
67769;DHT22;54569;52.018;5.584;2023-02-11T11:36:12;14.30;69.70
67769;DHT22;54569;52.018;5.584;2023-02-11T11:38:47;14.40;68.80
67769;DHT22;54569;52.018;5.584;2023-02-11T11:41:24;14.40;68.60
67769;DHT22;54569;52.018;5.584;2023-02-11T11:44:27;14.00;69.00
67769;DHT22;54569;52.018;5.584;2023-02-11T11:49:55;13.10;70.50
67769;DHT22;54569;52.018;5.584;2023-02-11T11:55:20;12.70;72.40
67769;DHT22;54569;52.018;5.584;2023-02-11T11:57:47;12.70;72.60
67769;DHT22;54569;52.018;5.584;2023-02-11T12:00:19;12.90;72.20
67769;DHT22;54569;52.018;5.584;2023-02-11T12:17:37;14.00;69.40
67769;DHT22;54569;52.018;5.584;2023-02-11T12:25:27;13.40;71.30
67769;DHT22;54569;52.018;5.584;2023-02-11T12:33:20;14.00;69.40
67769;DHT22;54569;52.018;5.584;2023-02-11T12:47:43;13.90;69.00
67769;DHT22;54569;52.018;5.584;2023-02-11T12:56:14;13.40;70.10
67769;DHT22;54569;52.018;5.584;2023-02-11T12:58:41;13.10;70.90
67769;DHT22;54569;52.018;5.584;2023-02-11T13:01:15;12.80;71.80
67769;DHT22;54569;52.018;5.584;2023-02-11T13:06:40;12.40;72.60
67769;DHT22;54569;52.018;5.584;2023-02-11T13:09:15;12.20;73.00
67769;DHT22;54569;52.018;5.584;2023-02-11T13:11:48;12.10;73.30
67769;DHT22;54569;52.018;5.584;2023-02-11T13:14:25;12.00;73.60
67769;DHT22;54569;52.018;5.584;2023-02-11T13:16:53;12.00;73.90
67769;DHT22;54569;52.018;5.584;2023-02-11T13:19:40;12.00;74.00
67769;DHT22;54569;52.018;5.584;2023-02-11T13:22:16;12.10;73.70
67769;DHT22;54569;52.018;5.584;2023-02-11T13:24:50;12.20;73.50
67769;DHT22;54569;52.018;5.584;2023-02-11T13:27:24;12.40;73.40
67769;DHT22;54569;52.018;5.584;2023-02-11T13:35:30;13.00;71.50
67769;DHT22;54569;52.018;5.584;2023-02-11T13:37:57;13.00;71.40
67769;DHT22;54569;52.018;5.584;2023-02-11T13:40:24;12.90;71.50
67769;DHT22;54569;52.018;5.584;2023-02-11T13:42:53;12.80;71.60
67769;DHT22;54569;52.018;5.584;2023-02-11T13:45:37;12.80;71.80
67769;DHT22;54569;52.018;5.584;2023-02-11T13:48:12;12.80;71.80
67769;DHT22;54569;52.018;5.584;2023-02-11T13:50:46;12.80;71.80
67769;DHT22;54569;52.018;5.584;2023-02-11T13:53:12;12.90;71.80
67769;DHT22;54569;52.018;5.584;2023-02-11T13:55:39;12.80;71.60
67769;DHT22;54569;52.018;5.584;2023-02-11T14:11:42;12.70;71.80
67769;DHT22;54569;52.018;5.584;2023-02-11T14:14:21;12.60;71.80
67769;DHT22;54569;52.018;5.584;2023-02-11T14:19:46;12.60;71.80
67769;DHT22;54569;52.018;5.584;2023-02-11T14:22:21;12.50;71.90
67769;DHT22;54569;52.018;5.584;2023-02-11T14:25:02;12.40;72.10
67769;DHT22;54569;52.018;5.584;2023-02-11T14:27:43;12.40;72.20
67769;DHT22;54569;52.018;5.584;2023-02-11T14:30:28;12.50;72.10
67769;DHT22;54569;52.018;5.584;2023-02-11T14:33:19;12.50;71.80
67769;DHT22;54569;52.018;5.584;2023-02-11T14:38:39;12.40;71.80
67769;DHT22;54569;52.018;5.584;2023-02-11T14:41:10;12.40;72.00
67769;DHT22;54569;52.018;5.584;2023-02-11T14:43:42;12.30;71.40
67769;DHT22;54569;52.018;5.584;2023-02-11T14:46:10;12.20;72.10
67769;DHT22;54569;52.018;5.584;2023-02-11T14:48:38;12.20;72.10
67769;DHT22;54569;52.018;5.584;2023-02-11T14:51:17;12.20;72.20
67769;DHT22;54569;52.018;5.584;2023-02-11T14:53:48;12.20;72.10
67769;DHT22;54569;52.018;5.584;2023-02-11T14:56:26;12.20;72.10
67769;DHT22;54569;52.018;5.584;2023-02-11T14:58:53;12.20;72.10
67769;DHT22;54569;52.018;5.584;2023-02-11T15:01:32;12.20;72.10
67769;DHT22;54569;52.018;5.584;2023-02-11T15:04:01;12.20;71.90
67769;DHT22;54569;52.018;5.584;2023-02-11T15:06:35;12.10;72.00
67769;DHT22;54569;52.018;5.584;2023-02-11T15:11:56;12.00;72.00
67769;DHT22;54569;52.018;5.584;2023-02-11T15:14:23;11.90;72.30
67769;DHT22;54569;52.018;5.584;2023-02-11T15:16:51;11.90;72.40
67769;DHT22;54569;52.018;5.584;2023-02-11T15:19:27;11.90;72.50
67769;DHT22;54569;52.018;5.584;2023-02-11T15:21:54;11.90;72.50
67769;DHT22;54569;52.018;5.584;2023-02-11T15:24:24;11.80;72.60
67769;DHT22;54569;52.018;5.584;2023-02-11T15:29:28;11.70;72.80
67769;DHT22;54569;52.018;5.584;2023-02-11T15:34:35;11.70;73.00
67769;DHT22;54569;52.018;5.584;2023-02-11T15:37:03;11.60;73.00
67769;DHT22;54569;52.018;5.584;2023-02-11T15:39:39;11.60;73.00
67769;DHT22;54569;52.018;5.584;2023-02-11T15:42:29;11.60;73.00
67769;DHT22;54569;52.018;5.584;2023-02-11T15:47:47;11.40;73.10
67769;DHT22;54569;52.018;5.584;2023-02-11T15:50:23;11.40;73.20
67769;DHT22;54569;52.018;5.584;2023-02-11T15:52:50;11.40;73.30
67769;DHT22;54569;52.018;5.584;2023-02-11T15:55:17;11.30;73.50
67769;DHT22;54569;52.018;5.584;2023-02-11T15:57:48;11.30;73.60
67769;DHT22;54569;52.018;5.584;2023-02-11T16:00:20;11.20;73.60
67769;DHT22;54569;52.018;5.584;2023-02-11T16:02:47;11.20;73.70
67769;DHT22;54569;52.018;5.584;2023-02-11T16:07:53;11.20;73.90
67769;DHT22;54569;52.018;5.584;2023-02-11T16:10:23;11.10;73.90
67769;DHT22;54569;52.018;5.584;2023-02-11T16:17:56;10.90;74.50
67769;DHT22;54569;52.018;5.584;2023-02-11T16:20:22;10.80;74.60
67769;DHT22;54569;52.018;5.584;2023-02-11T16:22:47;10.80;74.90
67769;DHT22;54569;52.018;5.584;2023-02-11T16:25:18;10.70;75.00
67769;DHT22;54569;52.018;5.584;2023-02-11T16:27:48;10.70;75.20
67769;DHT22;54569;52.018;5.584;2023-02-11T16:32:51;10.50;75.40
67769;DHT22;54569;52.018;5.584;2023-02-11T16:35:17;10.50;76.30
67769;DHT22;54569;52.018;5.584;2023-02-11T16:37:42;10.40;75.70
67769;DHT22;54569;52.018;5.584;2023-02-11T16:40:09;10.40;75.80
67769;DHT22;54569;52.018;5.584;2023-02-11T16:42:36;10.30;75.80
67769;DHT22;54569;52.018;5.584;2023-02-11T16:45:02;10.30;75.90
67769;DHT22;54569;52.018;5.584;2023-02-11T16:47:28;10.30;76.00
67769;DHT22;54569;52.018;5.584;2023-02-11T16:49:56;10.30;76.00
67769;DHT22;54569;52.018;5.584;2023-02-11T16:52:23;10.30;76.10
67769;DHT22;54569;52.018;5.584;2023-02-11T16:54:49;10.20;76.10
67769;DHT22;54569;52.018;5.584;2023-02-11T16:57:22;10.20;76.10
67769;DHT22;54569;52.018;5.584;2023-02-11T16:59:49;10.20;76.10
67769;DHT22;54569;52.018;5.584;2023-02-11T17:02:19;10.20;76.20
67769;DHT22;54569;52.018;5.584;2023-02-11T17:04:47;10.10;76.30
67769;DHT22;54569;52.018;5.584;2023-02-11T17:07:13;10.10;76.30
67769;DHT22;54569;52.018;5.584;2023-02-11T17:09:38;10.10;76.40
67769;DHT22;54569;52.018;5.584;2023-02-11T17:12:04;10.10;76.50
67769;DHT22;54569;52.018;5.584;2023-02-11T17:14:30;10.00;76.60
67769;DHT22;54569;52.018;5.584;2023-02-11T17:16:56;10.00;76.70
67769;DHT22;54569;52.018;5.584;2023-02-11T17:19:22;9.90;76.80
67769;DHT22;54569;52.018;5.584;2023-02-11T17:21:50;9.90;76.90
67769;DHT22;54569;52.018;5.584;2023-02-11T17:24:17;9.90;77.10
67769;DHT22;54569;52.018;5.584;2023-02-11T17:26:44;9.90;77.10
67769;DHT22;54569;52.018;5.584;2023-02-11T17:29:12;9.80;77.80
67769;DHT22;54569;52.018;5.584;2023-02-11T17:31:38;9.80;77.30
67769;DHT22;54569;52.018;5.584;2023-02-11T17:34:04;9.70;77.30
67769;DHT22;54569;52.018;5.584;2023-02-11T17:36:30;9.70;77.50
67769;DHT22;54569;52.018;5.584;2023-02-11T17:38:58;9.70;77.50
67769;DHT22;54569;52.018;5.584;2023-02-11T17:41:24;9.60;77.50
67769;DHT22;54569;52.018;5.584;2023-02-11T17:43:50;9.60;77.60
67769;DHT22;54569;52.018;5.584;2023-02-11T17:46:16;9.60;77.60
67769;DHT22;54569;52.018;5.584;2023-02-11T17:48:41;9.60;77.60
67769;DHT22;54569;52.018;5.584;2023-02-11T17:51:24;9.60;77.70
67769;DHT22;54569;52.018;5.584;2023-02-11T17:53:51;9.60;77.90
67769;DHT22;54569;52.018;5.584;2023-02-11T17:56:17;9.50;77.70
67769;DHT22;54569;52.018;5.584;2023-02-11T17:58:42;9.50;77.80
67769;DHT22;54569;52.018;5.584;2023-02-11T18:01:08;9.50;77.80
67769;DHT22;54569;52.018;5.584;2023-02-11T18:03:34;9.50;77.80
67769;DHT22;54569;52.018;5.584;2023-02-11T18:06:00;9.50;77.80
67769;DHT22;54569;52.018;5.584;2023-02-11T18:08:27;9.50;77.80
67769;DHT22;54569;52.018;5.584;2023-02-11T18:10:53;9.50;78.00
67769;DHT22;54569;52.018;5.584;2023-02-11T18:13:19;9.50;78.00
67769;DHT22;54569;52.018;5.584;2023-02-11T18:15:44;9.40;78.00
67769;DHT22;54569;52.018;5.584;2023-02-11T18:18:10;9.40;78.10